Time;durP1;ratioP1;P1;durP2;ratioP2;P2;SDS_P1;SDS_P2;PMS_P1;PMS_P2;Temp;Humidity;BMP_temperature;BMP_pressure;BME280_temperature;BME280_humidity;BME280_pressure;Samples;Min_cycle;Max_cycle;Signal;HPM_P1;HPM_P2
2023/05/26 04:01:12;;;;;;;1.17;1.07;;;12.50;60.30;;;;;;5722729;23;20496;-75
2023/05/26 04:03:40;;;;;;;0.97;0.27;;;12.40;66.00;;;;;;4939823;29;20497;-75
2023/05/26 04:06:13;;;;;;;0.60;0.10;;;12.40;68.70;;;;;;4940882;29;20452;-75
2023/05/26 04:08:40;;;;;;;1.23;1.03;;;12.40;72.30;;;;;;4939520;29;20538;-75
2023/05/26 04:11:08;;;;;;;0.60;0.13;;;12.40;73.20;;;;;;4948236;28;20464;-74
2023/05/26 04:13:39;;;;;;;0.60;0.13;;;12.40;73.30;;;;;;4957799;29;20556;-75
2023/05/26 04:16:07;;;;;;;0.60;0.10;;;12.30;75.80;;;;;;4957578;29;20493;-76
2023/05/26 04:18:37;;;;;;;0.60;0.10;;;12.30;78.60;;;;;;4956512;28;20948;-74
2023/05/26 04:21:05;;;;;;;0.60;0.10;;;12.30;79.50;;;;;;4957011;28;20566;-74
2023/05/26 04:23:32;;;;;;;0.60;0.10;;;12.30;90.30;;;;;;4947686;29;20486;-74
2023/05/26 04:26:01;;;;;;;2.23;2.03;;;12.40;81.60;;;;;;4937434;29;20444;-74
2023/05/26 04:28:29;;;;;;;0.93;0.67;;;12.40;82.10;;;;;;4938129;29;20453;-76
2023/05/26 04:30:57;;;;;;;1.53;1.43;;;12.40;83.00;;;;;;4936899;29;20553;-76
2023/05/26 04:33:25;;;;;;;0.70;0.37;;;12.40;83.10;;;;;;4935498;29;20867;-75
2023/05/26 04:35:54;;;;;;;0.60;0.10;;;12.50;83.40;;;;;;4936622;29;20504;-75
2023/05/26 04:38:23;;;;;;;0.60;0.10;;;12.50;91.90;;;;;;4931132;29;20480;-75
2023/05/26 04:40:51;;;;;;;0.60;0.10;;;12.50;84.40;;;;;;4929555;29;20536;-74
2023/05/26 04:43:20;;;;;;;0.70;0.50;;;12.40;83.10;;;;;;4926052;29;20455;-75
2023/05/26 04:45:48;;;;;;;0.60;0.10;;;12.40;86.20;;;;;;4933086;29;20457;-74
2023/05/26 04:48:16;;;;;;;0.93;0.83;;;12.40;87.20;;;;;;4933051;29;20499;-74
2023/05/26 04:50:45;;;;;;;0.83;0.83;;;12.40;90.40;;;;;;4918391;29;20465;-73
2023/05/26 04:53:14;;;;;;;1.10;0.53;;;12.40;95.40;;;;;;4932011;29;20558;-74
2023/05/26 04:55:42;;;;;;;1.13;0.73;;;12.50;90.40;;;;;;4946758;29;20477;-76
2023/05/26 04:58:10;;;;;;;0.60;0.20;;;12.60;89.00;;;;;;4954441;29;20458;-76
2023/05/26 05:00:38;;;;;;;1.00;0.53;;;12.60;89.60;;;;;;4959298;28;20465;-74
2023/05/26 05:03:07;;;;;;;0.83;0.40;;;12.60;87.80;;;;;;4959445;29;20481;-76
2023/05/26 05:05:35;;;;;;;0.60;0.10;;;12.60;89.00;;;;;;4958693;29;20499;-74
2023/05/26 05:08:03;;;;;;;1.10;0.93;;;12.50;90.80;;;;;;4957071;29;20531;-76
2023/05/26 05:10:32;;;;;;;0.60;0.20;;;12.50;91.20;;;;;;4951414;29;20543;-75
2023/05/26 05:13:01;;;;;;;1.03;0.93;;;12.50;93.20;;;;;;4936909;29;20545;-74
2023/05/26 05:15:29;;;;;;;0.60;0.20;;;12.50;92.90;;;;;;4937443;29;20866;-77
2023/05/26 05:17:58;;;;;;;0.73;0.60;;;12.50;95.80;;;;;;4937898;29;20524;-76
2023/05/26 05:20:29;;;;;;;0.60;0.30;;;12.50;99.90;;;;;;4939670;29;20547;-76
2023/05/26 05:22:57;;;;;;;0.60;0.30;;;12.60;94.10;;;;;;4941257;29;20576;-76
2023/05/26 05:25:24;;;;;;;0.70;0.40;;;12.60;93.60;;;;;;4949364;29;20457;-77
2023/05/26 05:27:54;;;;;;;0.67;0.20;;;12.60;93.60;;;;;;4946672;29;20476;-76
2023/05/26 05:30:22;;;;;;;0.60;0.17;;;12.60;98.80;;;;;;4939900;29;20927;-75
2023/05/26 05:32:50;;;;;;;0.70;0.40;;;12.60;92.50;;;;;;4941418;29;20498;-76
2023/05/26 05:35:18;;;;;;;2.93;2.73;;;12.60;94.00;;;;;;4940342;29;20512;-76
2023/05/26 05:37:46;;;;;;;1.17;1.07;;;12.60;94.30;;;;;;4939566;29;20492;-75
2023/05/26 05:40:14;;;;;;;0.60;0.10;;;12.60;99.80;;;;;;4934094;29;20521;-76
2023/05/26 05:42:42;;;;;;;0.60;0.17;;;12.80;94.40;;;;;;4937262;29;20550;-75
2023/05/26 05:45:11;;;;;;;1.00;0.43;;;12.80;92.90;;;;;;4936763;29;20448;-77
2023/05/26 05:47:39;;;;;;;1.90;1.80;;;12.80;92.90;;;;;;4936810;29;20493;-75
2023/05/26 05:50:08;;;;;;;0.60;0.10;;;12.90;92.80;;;;;;4937213;29;20476;-76
2023/05/26 05:52:36;;;;;;;3.80;1.77;;;12.90;92.20;;;;;;4935942;28;20484;-75
2023/05/26 05:55:04;;;;;;;1.00;0.90;;;12.90;92.20;;;;;;4937798;29;20807;-77
2023/05/26 05:57:32;;;;;;;0.70;0.20;;;12.90;92.10;;;;;;4936778;29;20901;-76
2023/05/26 06:00:00;;;;;;;0.60;0.10;;;12.90;93.40;;;;;;4939035;28;20488;-76
2023/05/26 06:02:30;;;;;;;0.60;0.10;;;12.90;94.10;;;;;;4938493;29;20485;-76
2023/05/26 06:04:58;;;;;;;1.10;0.70;;;13.00;94.60;;;;;;4937219;29;20454;-77
2023/05/26 06:07:30;;;;;;;0.80;0.57;;;13.00;92.90;;;;;;4938243;29;20453;-76
2023/05/26 06:09:58;;;;;;;0.60;0.20;;;13.00;92.90;;;;;;4938005;29;20478;-75
2023/05/26 06:12:25;;;;;;;0.70;0.63;;;13.10;93.80;;;;;;4935674;29;20560;-76
2023/05/26 06:14:53;;;;;;;0.70;0.53;;;13.10;99.10;;;;;;4938456;29;20541;-75
2023/05/26 06:17:21;;;;;;;5.23;4.23;;;13.20;93.20;;;;;;4937187;29;20512;-74
2023/05/26 06:19:50;;;;;;;0.60;0.10;;;13.20;93.00;;;;;;4937549;29;20545;-76
2023/05/26 06:22:18;;;;;;;0.70;0.40;;;13.20;92.80;;;;;;4936241;29;20485;-75
2023/05/26 06:24:46;;;;;;;0.60;0.20;;;13.30;92.60;;;;;;4936610;29;20541;-75
2023/05/26 06:27:14;;;;;;;0.60;0.10;;;13.30;91.80;;;;;;4937507;29;20542;-75
2023/05/26 06:29:43;;;;;;;1.03;0.40;;;13.40;91.90;;;;;;4936677;29;20463;-74
2023/05/26 06:32:11;;;;;;;0.60;0.20;;;13.40;91.10;;;;;;4935623;29;20565;-76
2023/05/26 06:34:39;;;;;;;0.60;0.10;;;13.50;90.80;;;;;;4936780;29;20446;-76
2023/05/26 06:37:08;;;;;;;1.10;0.63;;;13.50;89.70;;;;;;4937504;29;20482;-76
2023/05/26 06:39:36;;;;;;;0.73;0.50;;;13.50;95.10;;;;;;4936808;29;20459;-76
2023/05/26 06:42:05;;;;;;;0.60;0.10;;;13.40;90.80;;;;;;4938559;29;20474;-75
2023/05/26 06:44:34;;;;;;;0.60;0.20;;;13.50;92.20;;;;;;4942248;29;20456;-75
2023/05/26 06:47:02;;;;;;;0.60;0.10;;;13.50;97.30;;;;;;4940761;29;20482;-74
2023/05/26 06:49:30;;;;;;;1.27;0.50;;;13.60;96.20;;;;;;4940669;29;20541;-74
2023/05/26 06:51:58;;;;;;;0.70;0.33;;;13.80;90.30;;;;;;4943914;29;20516;-76
2023/05/26 06:54:27;;;;;;;0.83;0.40;;;13.70;90.80;;;;;;4942370;29;20458;-76
2023/05/26 06:56:55;;;;;;;0.80;0.40;;;13.70;90.80;;;;;;4942803;29;20482;-76
2023/05/26 06:59:23;;;;;;;0.60;0.20;;;13.70;96.10;;;;;;4940708;29;20495;-76
2023/05/26 07:01:51;;;;;;;0.60;0.10;;;14.00;91.80;;;;;;4938787;29;20482;-77
2023/05/26 07:04:19;;;;;;;1.97;1.87;;;14.00;91.00;;;;;;4938889;29;20460;-76
2023/05/26 07:06:47;;;;;;;0.60;0.10;;;14.00;90.70;;;;;;4939953;29;20971;-76
2023/05/26 07:09:15;;;;;;;1.53;1.07;;;14.10;90.60;;;;;;4940144;28;20495;-76
2023/05/26 07:11:45;;;;;;;0.60;0.20;;;;;;;;;;4951724;28;20474;-76
2023/05/26 07:14:13;;;;;;;0.60;0.10;;;14.30;94.50;;;;;;4932009;29;20548;-75
2023/05/26 07:16:41;;;;;;;0.60;0.20;;;14.30;99.60;;;;;;4938806;29;20487;-75
2023/05/26 07:19:09;;;;;;;0.60;0.20;;;;;;;;;;4940105;29;20452;-78
2023/05/26 07:21:41;;;;;;;0.60;0.20;;;;;;;;;;4955096;29;20471;-79
2023/05/26 07:24:09;;;;;;;0.60;0.10;;;14.80;87.00;;;;;;4947664;29;20491;-79
2023/05/26 07:26:37;;;;;;;0.60;0.30;;;14.80;86.70;;;;;;4938706;29;20522;-71
2023/05/26 07:29:07;;;;;;;0.70;0.30;;;14.90;87.30;;;;;;4938752;29;20474;-72
2023/05/26 07:31:35;;;;;;;0.60;0.10;;;14.90;88.20;;;;;;4947289;29;20497;-72
2023/05/26 07:34:03;;;;;;;2.40;1.03;;;15.00;86.80;;;;;;4940020;29;20456;-71
2023/05/26 07:36:31;;;;;;;0.87;0.50;;;15.00;85.90;;;;;;4938443;29;20573;-69
2023/05/26 07:38:59;;;;;;;0.60;0.50;;;15.10;87.60;;;;;;4938205;29;20449;-70
2023/05/26 07:41:27;;;;;;;2.50;0.70;;;15.10;85.10;;;;;;4937200;29;20476;-69
2023/05/26 07:43:55;;;;;;;0.60;0.20;;;15.20;85.80;;;;;;4937729;29;20534;-70
2023/05/26 07:46:24;;;;;;;0.77;0.30;;;15.30;83.60;;;;;;4938190;29;20571;-71
2023/05/26 07:48:53;;;;;;;0.60;0.10;;;15.30;82.40;;;;;;4939379;29;20457;-73
2023/05/26 07:51:21;;;;;;;0.60;0.10;;;15.40;79.90;;;;;;4937586;29;20481;-73
2023/05/26 07:53:49;;;;;;;0.60;0.10;;;15.40;80.30;;;;;;4936888;29;20452;-72
2023/05/26 07:56:17;;;;;;;0.60;0.27;;;15.50;83.20;;;;;;4938652;29;20477;-70
2023/05/26 07:58:44;;;;;;;0.60;0.10;;;15.50;92.30;;;;;;4937622;29;20447;-73
2023/05/26 08:01:12;;;;;;;2.40;0.50;;;15.70;85.10;;;;;;4935926;29;20523;-71
2023/05/26 08:03:42;;;;;;;0.60;0.20;;;15.80;80.80;;;;;;4937100;29;20533;-72
2023/05/26 08:06:10;;;;;;;0.60;0.20;;;15.90;79.60;;;;;;4937757;29;20440;-71
2023/05/26 08:08:53;;;;;;;0.70;0.20;;;15.90;90.60;;;;;;4938383;29;20540;-73
2023/05/26 08:11:21;;;;;;;0.60;0.10;;;16.10;69.40;;;;;;4951271;28;20494;-72
2023/05/26 08:13:49;;;;;;;0.60;0.30;;;16.10;79.50;;;;;;4940294;29;20544;-73
2023/05/26 08:16:17;;;;;;;0.60;0.10;;;16.20;64.60;;;;;;4942631;29;20474;-73
2023/05/26 08:18:46;;;;;;;2.53;0.40;;;16.20;56.80;;;;;;4952937;29;20453;-72
2023/05/26 08:21:14;;;;;;;0.60;0.10;;;16.10;54.50;;;;;;4938288;29;20936;-73
2023/05/26 08:23:42;;;;;;;2.73;0.43;;;16.10;54.60;;;;;;4936529;29;20464;-72
2023/05/26 08:26:10;;;;;;;0.60;0.10;;;16.20;58.40;;;;;;4942214;29;20449;-74
2023/05/26 08:28:38;;;;;;;0.60;0.20;;;16.30;59.50;;;;;;4936691;29;20449;-72
2023/05/26 08:31:06;;;;;;;0.60;0.17;;;16.30;57.80;;;;;;4938075;29;20495;-73
2023/05/26 08:33:34;;;;;;;1.60;1.50;;;16.40;56.40;;;;;;4938000;29;20469;-73
2023/05/26 08:36:03;;;;;;;0.60;0.20;;;16.50;53.70;;;;;;4943679;29;20453;-73
2023/05/26 08:38:31;;;;;;;0.60;0.20;;;16.50;53.60;;;;;;4935905;29;20552;-73
2023/05/26 08:41:01;;;;;;;0.60;0.10;;;16.60;53.90;;;;;;4930198;29;20563;-72
2023/05/26 08:43:37;;;;;;;0.60;0.10;;;16.60;65.20;;;;;;4936756;29;20558;-73
2023/05/26 08:46:13;;;;;;;1.00;0.40;;;19.70;51.10;;;;;;4929330;29;21022;-73
2023/05/26 08:48:41;;;;;;;1.37;0.93;;;16.70;44.60;;;;;;4934220;29;20972;-73
2023/05/26 08:51:11;;;;;;;1.13;0.87;;;16.70;43.40;;;;;;4931548;29;20627;-73
2023/05/26 08:53:41;;;;;;;0.60;0.10;;;16.80;43.70;;;;;;4933682;29;20455;-73
2023/05/26 08:56:10;;;;;;;1.17;0.47;;;16.80;44.10;;;;;;4928301;29;20513;-73
2023/05/26 08:58:40;;;;;;;0.60;0.20;;;16.80;54.60;;;;;;4947114;29;20562;-73
2023/05/26 09:01:09;;;;;;;0.60;0.20;;;17.10;41.40;;;;;;4925265;29;20468;-73
2023/05/26 09:03:36;;;;;;;0.97;0.47;;;17.20;41.90;;;;;;4937531;29;20550;-72
2023/05/26 09:06:05;;;;;;;0.60;0.10;;;17.20;40.40;;;;;;4937829;29;20479;-73
2023/05/26 09:08:34;;;;;;;0.60;0.10;;;17.20;38.40;;;;;;4945595;29;20450;-73
2023/05/26 09:11:20;;;;;;;0.60;0.20;;;17.30;39.20;;;;;;4945154;29;20467;-72
2023/05/26 09:13:52;;;;;;;0.60;0.10;;;17.30;50.10;;;;;;4935874;29;20994;-72
2023/05/26 09:16:23;;;;;;;0.60;0.17;;;17.40;42.90;;;;;;4926380;29;20444;-73
2023/05/26 09:18:56;;;;;;;0.60;0.10;;;17.50;40.00;;;;;;4940393;29;20560;-74
2023/05/26 09:21:26;;;;;;;0.60;0.10;;;17.50;40.10;;;;;;4949091;28;20519;-74
2023/05/26 09:23:57;;;;;;;0.60;0.10;;;17.60;41.80;;;;;;4938669;29;20542;-74
2023/05/26 09:26:30;;;;;;;1.60;0.40;;;17.60;52.70;;;;;;4938172;29;20448;-73
2023/05/26 09:28:58;;;;;;;0.60;0.10;;;17.80;49.30;;;;;;4937297;29;20812;-73
2023/05/26 09:31:26;;;;;;;0.70;0.30;;;17.90;33.80;;;;;;4945488;28;20477;-74
2023/05/26 09:33:54;;;;;;;0.97;0.30;;;17.90;28.30;;;;;;4935806;29;20482;-73
2023/05/26 09:36:26;;;;;;;0.70;0.30;;;18.00;26.50;;;;;;4936952;29;20517;-73
2023/05/26 09:38:53;;;;;;;0.60;0.10;;;18.00;35.90;;;;;;4935674;29;20533;-74
2023/05/26 09:41:34;;;;;;;0.60;0.40;;;18.00;29.70;;;;;;4934794;29;20583;-73
2023/05/26 09:44:08;;;;;;;1.40;1.30;;;18.20;31.20;;;;;;4937833;29;20859;-73
2023/05/26 09:46:37;;;;;;;0.60;0.10;;;18.30;27.20;;;;;;4934032;29;20456;-74
2023/05/26 09:49:09;;;;;;;1.17;0.87;;;18.20;25.30;;;;;;4934980;29;20443;-74
2023/05/26 09:51:37;;;;;;;0.60;0.20;;;18.20;26.50;;;;;;4933442;29;20579;-72
2023/05/26 09:54:06;;;;;;;0.60;0.10;;;18.20;26.30;;;;;;4931762;29;20451;-72
2023/05/26 09:56:36;;;;;;;0.70;0.30;;;18.30;36.90;;;;;;4933621;29;20507;-74
2023/05/26 09:59:05;;;;;;;0.60;0.20;;;18.40;26.80;;;;;;4933335;29;20618;-73
2023/05/26 10:01:35;;;;;;;0.60;0.20;;;18.40;25.00;;;;;;4934178;29;20484;-72
2023/05/26 10:04:05;;;;;;;2.40;0.77;;;18.30;22.10;;;;;;4934019;29;20444;-71
2023/05/26 10:06:35;;;;;;;0.60;0.10;;;18.30;21.60;;;;;;4942191;29;20940;-73
2023/05/26 10:09:05;;;;;;;0.60;0.10;;;18.50;20.60;;;;;;4942838;29;20468;-73
2023/05/26 10:11:41;;;;;;;0.60;0.20;;;18.50;23.10;;;;;;4940746;29;20846;-73
2023/05/26 10:14:09;;;;;;;0.60;0.20;;;;;;;;;;4936532;29;20455;-73
2023/05/26 10:16:38;;;;;;;0.67;0.37;;;18.60;23.10;;;;;;4935688;29;20507;-74
2023/05/26 10:19:07;;;;;;;0.60;0.10;;;18.60;31.40;;;;;;4935821;29;20491;-74
2023/05/26 10:21:38;;;;;;;0.60;0.10;;;18.80;23.70;;;;;;4931103;29;20510;-74
2023/05/26 10:24:14;;;;;;;4.47;2.03;;;18.80;22.20;;;;;;4935683;29;20458;-74
2023/05/26 10:26:53;;;;;;;0.60;0.20;;;18.80;22.40;;;;;;4935510;29;20541;-73
2023/05/26 10:29:28;;;;;;;0.70;0.40;;;18.90;30.90;;;;;;4935691;29;20483;-72
2023/05/26 10:31:56;;;;;;;0.70;0.30;;;19.10;24.70;;;;;;4937008;29;20534;-74
2023/05/26 10:34:42;;;;;;;1.07;0.43;;;19.20;25.90;;;;;;4936437;29;20470;-74
2023/05/26 10:37:16;;;;;;;4.20;1.50;;;19.20;32.20;;;;;;4931051;29;20526;-73
2023/05/26 10:39:44;;;;;;;0.60;0.10;;;;;;;;;;4935128;29;20479;-74
2023/05/26 10:42:18;;;;;;;1.10;0.77;;;19.30;20.10;;;;;;4933906;29;20577;-74
2023/05/26 10:44:48;;;;;;;0.60;0.30;;;19.30;19.40;;;;;;4934082;29;20499;-73
2023/05/26 10:47:17;;;;;;;0.60;0.10;;;19.30;28.40;;;;;;4933464;29;20456;-74
2023/05/26 10:49:55;;;;;;;0.60;0.10;;;19.40;27.10;;;;;;4934690;29;20448;-74
2023/05/26 10:52:25;;;;;;;1.57;1.00;;;19.60;20.40;;;;;;4934897;29;20478;-73
2023/05/26 10:54:53;;;;;;;0.93;0.60;;;19.60;25.80;;;;;;4942924;29;21055;-74
2023/05/26 10:57:33;;;;;;;0.60;0.10;;;19.60;15.40;;;;;;4932190;29;20464;-73
2023/05/26 11:00:20;;;;;;;0.67;0.30;;;19.60;14.20;;;;;;4928433;29;20521;-73
2023/05/26 11:02:48;;;;;;;0.60;0.20;;;19.60;14.00;;;;;;4924788;29;20490;-74
2023/05/26 11:05:32;;;;;;;0.73;0.50;;;19.70;12.00;;;;;;4937303;29;20491;-74
2023/05/26 11:08:00;;;;;;;1.27;1.17;;;19.70;15.20;;;;;;4934571;29;21030;-74
2023/05/26 11:11:02;;;;;;;0.60;0.20;;;19.70;10.20;;;;;;4957758;28;20444;-75
2023/05/26 11:13:46;;;;;;;0.60;0.10;;;19.70;19.00;;;;;;4936693;29;20447;-73
2023/05/26 11:16:22;;;;;;;1.43;1.33;;;19.80;14.90;;;;;;4934244;29;20494;-73
2023/05/26 11:18:53;;;;;;;0.60;0.20;;;19.80;22.60;;;;;;4931565;29;20546;-73
2023/05/26 11:21:24;;;;;;;0.60;0.20;;;19.80;13.10;;;;;;4935610;29;20506;-73
2023/05/26 11:23:54;;;;;;;5.13;0.50;;;19.80;13.80;;;;;;4935397;29;20664;-73
2023/05/26 11:26:23;;;;;;;0.70;0.33;;;19.90;23.00;;;;;;4934547;29;20551;-73
2023/05/26 11:28:53;;;;;;;0.77;0.77;;;20.10;21.90;;;;;;4927460;29;20487;-73
2023/05/26 11:31:24;;;;;;;2.20;1.23;;;20.20;5.30;;;;;;4930685;29;20477;-73
2023/05/26 11:33:53;;;;;;;0.60;0.17;;;20.10;8.00;;;;;;4940951;29;20482;-72
2023/05/26 11:36:22;;;;;;;0.80;0.30;;;20.20;15.50;;;;;;4929787;29;20526;-73
2023/05/26 11:38:54;;;;;;;0.60;0.10;;;20.20;7.80;;;;;;4932653;29;20884;-73
2023/05/26 11:41:25;;;;;;;0.87;0.30;;;20.30;9.00;;;;;;4938458;29;20476;-74
2023/05/26 11:43:56;;;;;;;0.60;0.10;;;20.50;6.60;;;;;;4938275;29;20440;-72
2023/05/26 11:46:27;;;;;;;16.80;1.10;;;20.50;2.30;;;;;;4929261;29;20447;-73
2023/05/26 11:48:55;;;;;;;0.60;0.10;;;20.50;2.00;;;;;;4929611;29;20472;-74
2023/05/26 11:51:23;;;;;;;0.70;0.40;;;20.60;5.40;;;;;;4935836;29;20487;-74
2023/05/26 11:53:54;;;;;;;0.60;0.20;;;20.60;4.00;;;;;;4937956;29;20447;-73
2023/05/26 11:56:22;;;;;;;0.77;0.40;;;20.60;5.50;;;;;;4935409;29;20626;-74
2023/05/26 11:58:56;;;;;;;1.30;1.20;;;20.70;4.30;;;;;;4938235;29;20462;-71
2023/05/26 12:01:26;;;;;;;0.70;0.30;;;20.80;1.00;;;;;;4934175;29;20482;-74
2023/05/26 12:03:56;;;;;;;2.40;1.07;;;20.80;1.00;;;;;;4924525;29;20463;-73
2023/05/26 12:06:25;;;;;;;0.60;0.10;;;20.70;1.00;;;;;;4942514;29;20459;-73
2023/05/26 12:08:56;;;;;;;0.60;0.20;;;20.70;8.30;;;;;;4942596;28;20505;-74
2023/05/26 12:11:37;;;;;;;0.80;0.67;;;20.60;1.00;;;;;;4940186;28;20476;-74
2023/05/26 12:14:14;;;;;;;0.60;0.10;;;20.50;1.00;;;;;;4937677;29;20440;-73
2023/05/26 12:16:44;;;;;;;0.80;0.57;;;20.50;1.00;;;;;;4939291;29;20455;-75
2023/05/26 12:19:14;;;;;;;1.53;0.60;;;20.50;1.00;;;;;;4947308;29;20524;-74
2023/05/26 12:21:43;;;;;;;1.20;1.10;;;20.60;1.00;;;;;;4949663;29;20503;-74
2023/05/26 12:24:12;;;;;;;2.90;0.63;;;;;;;;;;4954739;29;20504;-75
2023/05/26 12:26:40;;;;;;;1.20;1.00;;;20.70;1.00;;;;;;4938425;29;20450;-74
2023/05/26 12:29:12;;;;;;;0.60;0.10;;;20.70;5.80;;;;;;4933532;29;20487;-72
2023/05/26 12:31:41;;;;;;;0.60;0.20;;;20.70;1.00;;;;;;4938763;29;20989;-73
2023/05/26 12:34:10;;;;;;;0.60;0.20;;;20.80;1.00;;;;;;4943926;29;20446;-73
2023/05/26 12:36:38;;;;;;;0.60;0.20;;;20.90;1.00;;;;;;4956651;29;20542;-73
2023/05/26 12:39:09;;;;;;;0.70;0.40;;;20.90;1.00;;;;;;4953601;28;20465;-74
2023/05/26 12:41:37;;;;;;;0.60;0.10;;;20.80;1.00;;;;;;4939011;29;20552;-74
2023/05/26 12:44:05;;;;;;;0.60;0.20;;;20.90;1.00;;;;;;4943336;29;20968;-73
2023/05/26 12:46:35;;;;;;;0.70;0.30;;;20.80;1.00;;;;;;4949304;29;20477;-74
2023/05/26 12:49:03;;;;;;;12.80;11.70;;;21.10;1.00;;;;;;4949984;29;20510;-74
2023/05/26 12:51:32;;;;;;;0.97;0.87;;;21.10;1.00;;;;;;4944158;29;20475;-72
2023/05/26 12:54:00;;;;;;;0.70;0.30;;;21.10;1.00;;;;;;4936251;29;20466;-72
2023/05/26 12:56:28;;;;;;;0.60;0.20;;;21.00;1.00;;;;;;4945330;29;20539;-73
2023/05/26 12:58:56;;;;;;;0.80;0.20;;;21.00;3.10;;;;;;4937257;29;20468;-73
2023/05/26 13:01:42;;;;;;;0.60;0.20;;;21.20;1.00;;;;;;4933108;29;20501;-74
2023/05/26 13:04:10;;;;;;;0.70;0.30;;;21.20;1.00;;;;;;4936605;29;20487;-73
2023/05/26 13:06:39;;;;;;;4.97;0.77;;;21.20;1.00;;;;;;4933268;29;20453;-73
2023/05/26 13:09:09;;;;;;;0.70;0.23;;;21.20;1.00;;;;;;4945221;29;20487;-74
2023/05/26 13:11:38;;;;;;;8.33;1.93;;;21.20;1.00;;;;;;4949938;28;21041;-74
2023/05/26 13:14:05;;;;;;;0.60;0.20;;;21.20;2.30;;;;;;4937597;29;20462;-73
2023/05/26 13:16:33;;;;;;;0.60;0.10;;;21.20;1.00;;;;;;4938236;29;20452;-71
2023/05/26 13:19:03;;;;;;;0.93;0.60;;;21.30;1.00;;;;;;4946425;29;20459;-71
2023/05/26 13:21:31;;;;;;;1.20;1.00;;;21.40;1.00;;;;;;4953106;28;20559;-70
2023/05/26 13:23:59;;;;;;;1.00;0.30;;;21.40;1.00;;;;;;4938361;29;20574;-73
2023/05/26 13:26:27;;;;;;;0.60;0.20;;;21.40;1.00;;;;;;4937224;29;20551;-73
2023/05/26 13:28:55;;;;;;;6.73;0.93;;;21.50;1.00;;;;;;4935668;29;20486;-73
2023/05/26 13:31:23;;;;;;;0.60;0.20;;;21.40;1.00;;;;;;4943769;29;20502;-72
2023/05/26 13:33:52;;;;;;;0.60;0.20;;;21.40;1.00;;;;;;4948647;29;20459;-72
2023/05/26 13:36:22;;;;;;;0.70;0.57;;;21.40;1.00;;;;;;4936552;29;20453;-73
2023/05/26 13:38:50;;;;;;;0.90;0.50;;;21.40;1.00;;;;;;4936015;29;20491;-72
2023/05/26 13:41:19;;;;;;;2.30;0.30;;;21.40;1.00;;;;;;4935478;29;20548;-72
2023/05/26 13:43:47;;;;;;;2.87;0.63;;;21.40;1.00;;;;;;4944123;29;20972;-72
2023/05/26 13:46:15;;;;;;;0.70;0.30;;;21.40;1.00;;;;;;4935607;29;20613;-74
2023/05/26 13:48:43;;;;;;;0.60;0.20;;;;;;;;;;4936288;29;20579;-72
2023/05/26 13:51:11;;;;;;;0.60;0.10;;;21.50;1.00;;;;;;4932710;29;20537;-73
2023/05/26 13:53:41;;;;;;;0.70;0.20;;;21.50;1.00;;;;;;4933071;29;20465;-72
2023/05/26 13:56:08;;;;;;;1.07;0.60;;;21.60;1.00;;;;;;4942794;29;20483;-72
2023/05/26 13:58:53;;;;;;;0.60;0.20;;;21.60;1.00;;;;;;4949501;29;20457;-72
2023/05/26 14:01:22;;;;;;;1.83;0.83;;;21.60;1.00;;;;;;4941696;29;20477;-72
2023/05/26 14:04:04;;;;;;;5.03;3.23;;;21.70;1.00;;;;;;4936499;29;20440;-73
2023/05/26 14:06:34;;;;;;;0.77;0.47;;;21.70;1.00;;;;;;4936528;29;20491;-73
2023/05/26 14:09:06;;;;;;;0.60;0.20;;;21.80;1.00;;;;;;4935660;29;20536;-73
2023/05/26 14:11:34;;;;;;;0.70;0.40;;;21.80;1.00;;;;;;4936155;29;20497;-73
2023/05/26 14:14:02;;;;;;;0.80;0.40;;;21.80;1.00;;;;;;4935715;29;20543;-72
2023/05/26 14:16:30;;;;;;;0.60;0.10;;;21.90;1.00;;;;;;4935805;29;20457;-72
2023/05/26 14:18:58;;;;;;;0.70;0.23;;;;;;;;;;4943343;29;20488;-72
2023/05/26 14:21:33;;;;;;;0.60;0.10;;;21.80;1.00;;;;;;4949322;28;20500;-75
2023/05/26 14:24:22;;;;;;;1.47;0.87;;;21.90;1.00;;;;;;4935367;28;20481;-73
2023/05/26 14:26:50;;;;;;;2.30;0.77;;;21.90;1.00;;;;;;4935476;29;20504;-73
2023/05/26 14:29:18;;;;;;;0.60;0.10;;;21.90;1.00;;;;;;4934865;29;20470;-72
2023/05/26 14:31:48;;;;;;;0.60;0.20;;;22.00;1.00;;;;;;4934543;29;20497;-72
2023/05/26 14:34:16;;;;;;;0.60;0.20;;;22.10;1.00;;;;;;4970942;23;21022;-71
2023/05/26 14:36:44;;;;;;;0.83;0.27;;;22.10;1.00;;;;;;4971891;28;20488;-71
2023/05/26 14:39:13;;;;;;;2.20;0.50;;;22.10;1.00;;;;;;4971000;28;20508;-69
2023/05/26 14:41:42;;;;;;;0.70;0.47;;;22.10;1.00;;;;;;4972430;28;20444;-69
2023/05/26 14:44:13;;;;;;;0.60;0.20;;;22.20;1.00;;;;;;4971802;28;20479;-71
2023/05/26 14:46:41;;;;;;;1.20;0.50;;;;;;;;;;4973605;28;20861;-71
2023/05/26 14:49:10;;;;;;;0.70;0.20;;;22.10;1.00;;;;;;4974306;28;20452;-70
2023/05/26 14:51:39;;;;;;;1.83;0.77;;;;;;;;;;4973299;28;20488;-71
2023/05/26 14:54:08;;;;;;;0.60;0.20;;;;;;;;;;4975462;28;20489;-71
2023/05/26 14:56:39;;;;;;;0.60;0.20;;;;;;;;;;4979283;28;20448;-70
2023/05/26 14:59:08;;;;;;;0.70;0.30;;;22.30;1.00;;;;;;4975817;28;20448;-71
2023/05/26 15:01:40;;;;;;;2.37;1.60;;;22.40;1.00;;;;;;4972898;28;20445;-71
2023/05/26 15:04:10;;;;;;;0.70;0.30;;;22.50;1.00;;;;;;4976709;28;20560;-71
2023/05/26 15:06:42;;;;;;;0.60;0.20;;;22.60;1.00;;;;;;4976848;28;20448;-72
2023/05/26 15:09:12;;;;;;;0.60;0.10;;;22.60;1.00;;;;;;4975179;28;20488;-71
2023/05/26 15:11:46;;;;;;;2.70;0.90;;;22.60;1.00;;;;;;4973611;28;21333;-71
2023/05/26 15:14:19;;;;;;;0.60;0.20;;;;;;;;;;4972911;28;21030;-73
2023/05/26 15:16:47;;;;;;;0.70;0.37;;;22.80;1.00;;;;;;4965292;28;20488;-72
2023/05/26 15:19:16;;;;;;;0.90;0.53;;;;;;;;;;4973286;28;20482;-71
2023/05/26 15:21:44;;;;;;;0.70;0.20;;;;;;;;;;4977030;28;21032;-74
2023/05/26 15:24:12;;;;;;;2.50;1.30;;;22.80;1.00;;;;;;4975189;28;20483;-71
2023/05/26 15:26:40;;;;;;;0.80;0.53;;;;;;;;;;4976174;28;20847;-71
2023/05/26 15:29:11;;;;;;;0.60;0.20;;;;;;;;;;4982028;28;20466;-72
2023/05/26 15:31:41;;;;;;;0.80;0.60;;;22.80;1.00;;;;;;4976483;28;20584;-72
2023/05/26 15:34:11;;;;;;;0.80;0.50;;;;;;;;;;4978976;28;20507;-71
2023/05/26 15:36:38;;;;;;;0.60;0.10;;;23.00;1.00;;;;;;4977126;28;20467;-72
2023/05/26 15:39:07;;;;;;;0.70;0.20;;;;;;;;;;4995232;28;20550;-73
2023/05/26 15:41:35;;;;;;;0.60;0.20;;;;;;;;;;4973678;28;20461;-71
2023/05/26 15:44:03;;;;;;;1.00;0.77;;;;;;;;;;4974371;28;21040;-72
2023/05/26 15:46:31;;;;;;;0.70;0.20;;;23.30;1.00;;;;;;4964512;28;21053;-71
2023/05/26 15:49:01;;;;;;;11.20;1.47;;;23.30;1.00;;;;;;4953592;28;20447;-71
2023/05/26 15:51:29;;;;;;;5.30;5.00;;;;;;;;;;4956177;28;20904;-71
2023/05/26 15:53:57;;;;;;;0.70;0.20;;;23.20;1.00;;;;;;4955918;28;20462;-69
2023/05/26 15:56:26;;;;;;;1.20;1.10;;;;;;;;;;4956160;28;20489;-71
2023/05/26 15:58:54;;;;;;;0.70;0.10;;;;;;;;;;4973001;28;20453;-70
2023/05/26 16:01:23;;;;;;;6.63;1.60;;;23.30;1.00;;;;;;4974957;28;20938;-71
2023/05/26 16:03:51;;;;;;;0.70;0.30;;;23.00;1.00;;;;;;4975078;28;20548;-71
2023/05/26 16:06:20;;;;;;;0.60;0.10;;;23.00;1.00;;;;;;4975592;28;20472;-71
2023/05/26 16:08:48;;;;;;;0.70;0.20;;;23.10;1.00;;;;;;4975161;28;20901;-71
2023/05/26 16:11:16;;;;;;;1.27;1.17;;;23.30;1.00;;;;;;4985518;28;20988;-72
2023/05/26 16:13:44;;;;;;;0.70;0.20;;;23.40;1.00;;;;;;4993383;28;20511;-70
2023/05/26 16:16:12;;;;;;;0.70;0.10;;;;;;;;;;4994429;28;20858;-70
2023/05/26 16:18:41;;;;;;;0.70;0.10;;;;;;;;;;4982464;28;20452;-71
2023/05/26 16:21:09;;;;;;;1.73;1.27;;;23.40;1.00;;;;;;4974917;28;20454;-71
2023/05/26 16:23:38;;;;;;;5.40;1.00;;;23.20;1.00;;;;;;4974685;28;21077;-71
2023/05/26 16:26:07;;;;;;;0.70;0.20;;;;;;;;;;4974991;28;20965;-72
2023/05/26 16:28:40;;;;;;;0.80;0.57;;;;;;;;;;4974816;28;20450;-71
2023/05/26 16:31:09;;;;;;;0.80;0.30;;;;;;;;;;4975195;28;20567;-72
2023/05/26 16:33:37;;;;;;;1.37;1.27;;;;;;;;;;4974596;28;20472;-71
2023/05/26 16:36:05;;;;;;;0.90;0.30;;;23.60;1.00;;;;;;4974818;28;20489;-72
2023/05/26 16:38:34;;;;;;;0.80;0.37;;;23.60;1.00;;;;;;4975011;28;20457;-72
2023/05/26 16:41:03;;;;;;;0.70;0.10;;;23.60;1.00;;;;;;4975298;28;20495;-72
2023/05/26 16:43:32;;;;;;;2.10;1.43;;;;;;;;;;4974545;28;21051;-71
2023/05/26 16:46:14;;;;;;;0.80;0.20;;;;;;;;;;4975408;28;20451;-72
2023/05/26 16:48:43;;;;;;;0.70;0.20;;;;;;;;;;4975386;28;20827;-72
2023/05/26 16:51:11;;;;;;;0.80;0.43;;;23.60;1.00;;;;;;4974864;28;20571;-72
2023/05/26 16:53:39;;;;;;;0.87;0.37;;;;;;;;;;4974380;28;20536;-72
2023/05/26 16:56:08;;;;;;;0.70;0.20;;;23.70;1.00;;;;;;4975075;28;20485;-72
2023/05/26 16:58:36;;;;;;;0.90;0.73;;;23.70;1.00;;;;;;4974414;28;20980;-72
2023/05/26 17:01:04;;;;;;;0.70;0.20;;;23.70;1.00;;;;;;4974566;28;20449;-72
2023/05/26 17:03:32;;;;;;;2.20;0.30;;;23.70;1.00;;;;;;4974091;28;20888;-71
2023/05/26 17:06:00;;;;;;;0.70;0.20;;;23.70;1.00;;;;;;4974173;28;20861;-71
2023/05/26 17:08:28;;;;;;;0.70;0.30;;;23.80;1.00;;;;;;4974570;28;20453;-72
2023/05/26 17:10:56;;;;;;;0.70;0.20;;;23.80;1.00;;;;;;4982967;28;20476;-71
2023/05/26 17:13:25;;;;;;;0.70;0.20;;;23.80;1.00;;;;;;4993841;28;20815;-72
2023/05/26 17:15:54;;;;;;;0.70;0.20;;;;;;;;;;4994951;28;20547;-72